Terminal Aerodrome Forecast
Issued by NWS Atlanta, GA

Home | Current Version | Previous Version | Text Only | Print | Product List | Glossary On
Versions: 1 2 3 4 5 6 7 8 9 10 11 12 13 14 15 16 17 18 19 20 21
000
FTUS42 KFFC 231900 AAA
TAFMCN
TAF AMD
KMCN 231944Z 2320/2418 05012KT P6SM SCT025 BKN045
     FM240000 05010KT P6SM SCT025 BKN045
     FM240600 05008KT P6SM BKN020
     FM241400 06010G16KT P6SM BKN030
     FM241600 06010G18KT P6SM BKN040=

USA.gov is the U.S. government's official web portal to all federal, state and local government web resources and services.